createdAt,value
2019-03-02T00:00:03.500Z,7.40
2019-03-02T00:00:39.790Z,7.40
2019-03-02T00:01:15.934Z,7.40
2019-03-02T00:01:50.420Z,7.40
2019-03-02T00:02:25.481Z,7.40
2019-03-02T00:03:00.711Z,7.30
2019-03-02T00:03:35.976Z,7.40
2019-03-02T00:04:11.107Z,7.40
2019-03-02T00:04:48.417Z,7.40
2019-03-02T00:05:24.385Z,7.40
2019-03-02T00:06:00.982Z,7.40
2019-03-02T00:06:35.699Z,7.40
2019-03-02T00:07:11.341Z,7.40
2019-03-02T00:07:47.691Z,7.30
2019-03-02T00:08:25.186Z,7.40
2019-03-02T00:08:59.906Z,7.40
2019-03-02T00:09:34.700Z,7.40
2019-03-02T00:10:10.964Z,7.40
2019-03-02T00:10:45.841Z,7.40
2019-03-02T00:11:20.695Z,7.30
2019-03-02T00:11:56.642Z,7.40
2019-03-02T00:12:32.292Z,7.30
2019-03-02T00:13:08.678Z,7.40
2019-03-02T00:13:43.452Z,7.40
2019-03-02T00:14:19.287Z,7.40
2019-03-02T00:14:55.012Z,7.40
2019-03-02T00:15:30.735Z,7.40
2019-03-02T00:16:07.627Z,7.40
2019-03-02T00:16:43.294Z,7.40
2019-03-02T00:17:19.055Z,7.40
2019-03-02T00:17:55.158Z,7.50
2019-03-02T00:18:30.013Z,7.50
2019-03-02T00:19:06.657Z,7.50
2019-03-02T00:19:41.919Z,7.50
2019-03-02T00:20:18.146Z,7.50
2019-03-02T00:20:55.374Z,7.50
2019-03-02T00:21:31.406Z,7.50
2019-03-02T00:22:06.936Z,7.50
2019-03-02T00:22:43.502Z,7.50
2019-03-02T00:23:18.846Z,7.50
2019-03-02T00:23:54.267Z,7.50
2019-03-02T00:24:29.794Z,7.50
2019-03-02T00:25:06.597Z,7.50
2019-03-02T00:25:41.138Z,7.50
2019-03-02T00:26:15.722Z,7.40
2019-03-02T00:26:50.239Z,7.40
2019-03-02T00:27:24.873Z,7.40
2019-03-02T00:27:59.377Z,7.40
2019-03-02T00:28:35.555Z,7.40
2019-03-02T00:29:11.155Z,7.40
2019-03-02T00:29:46.817Z,7.40
2019-03-02T00:30:22.200Z,7.40
2019-03-02T00:30:57.891Z,7.40
2019-03-02T00:31:33.460Z,7.40
2019-03-02T00:32:09.610Z,7.40
2019-03-02T00:32:45.862Z,7.40
2019-03-02T00:33:21.091Z,7.40
2019-03-02T00:33:56.669Z,7.40
2019-03-02T00:34:32.259Z,7.40
2019-03-02T00:35:08.246Z,7.40
2019-03-02T00:35:43.646Z,7.40
2019-03-02T00:36:19.578Z,7.40
2019-03-02T00:36:55.307Z,7.40
2019-03-02T00:37:32.848Z,7.40
2019-03-02T00:38:08.849Z,7.40
2019-03-02T00:38:43.512Z,7.30
2019-03-02T00:39:19.076Z,7.40
2019-03-02T00:39:55.566Z,7.30
2019-03-02T00:40:31.402Z,7.40
2019-03-02T00:41:06.952Z,7.40
2019-03-02T00:41:42.109Z,7.40
2019-03-02T00:42:17.866Z,7.40
2019-03-02T00:42:52.831Z,7.40
2019-03-02T00:43:28.051Z,7.40
2019-03-02T00:44:03.779Z,7.40
2019-03-02T00:44:39.416Z,7.40
2019-03-02T00:45:15.515Z,7.40
2019-03-02T00:45:50.087Z,7.40
2019-03-02T00:46:24.867Z,7.40
2019-03-02T00:46:59.823Z,7.30
2019-03-02T00:47:35.214Z,7.40
2019-03-02T00:48:11.294Z,7.40
2019-03-02T00:48:47.155Z,7.40
2019-03-02T00:49:22.903Z,7.40
2019-03-02T00:50:00.901Z,7.30
2019-03-02T00:50:36.513Z,7.30
2019-03-02T00:51:11.216Z,7.30
2019-03-02T00:51:47.399Z,7.40
2019-03-02T00:52:23.470Z,7.40
2019-03-02T00:52:59.202Z,7.40
2019-03-02T00:53:35.531Z,7.40
2019-03-02T00:54:11.362Z,7.40
2019-03-02T00:54:49.926Z,7.40
2019-03-02T00:55:22.319Z,7.40
2019-03-02T00:55:56.921Z,7.40
2019-03-02T00:56:31.444Z,7.40
2019-03-02T00:57:06.006Z,7.40
2019-03-02T00:57:40.515Z,7.40
2019-03-02T00:58:15.028Z,7.40
2019-03-02T00:58:49.535Z,7.40
2019-03-02T00:59:24.060Z,7.40
2019-03-02T00:59:58.568Z,7.40
2019-03-02T01:00:33.053Z,7.40
2019-03-02T01:01:07.554Z,7.30
2019-03-02T01:01:42.057Z,7.40
2019-03-02T01:02:16.581Z,7.40
2019-03-02T01:02:51.161Z,7.40
2019-03-02T01:03:25.716Z,7.40
2019-03-02T01:04:00.222Z,7.40
2019-03-02T01:04:34.721Z,7.40
2019-03-02T01:05:09.480Z,7.40
2019-03-02T01:05:43.972Z,7.40
2019-03-02T01:06:18.483Z,7.40
2019-03-02T01:06:52.984Z,7.40
2019-03-02T01:07:27.493Z,7.50
2019-03-02T01:08:02.052Z,7.50
2019-03-02T01:08:36.549Z,7.50
2019-03-02T01:09:11.799Z,7.50
2019-03-02T01:09:47.420Z,7.40
2019-03-02T01:10:22.622Z,7.40
2019-03-02T01:10:58.336Z,7.40
2019-03-02T01:11:34.192Z,7.30
2019-03-02T01:12:09.177Z,7.30
2019-03-02T01:12:45.295Z,7.30
2019-03-02T01:13:22.936Z,7.30
2019-03-02T01:13:56.827Z,7.30
2019-03-02T01:14:33.146Z,7.40
2019-03-02T01:15:13.536Z,7.40
2019-03-02T01:15:48.039Z,7.30
2019-03-02T01:16:22.612Z,7.30
2019-03-02T01:16:57.192Z,7.30
2019-03-02T01:17:31.858Z,7.40
2019-03-02T01:18:06.818Z,7.40
2019-03-02T01:18:42.376Z,7.40
2019-03-02T01:19:18.466Z,7.50
2019-03-02T01:19:53.927Z,7.40
2019-03-02T01:20:29.919Z,7.40
2019-03-02T01:21:05.104Z,7.40
2019-03-02T01:21:41.319Z,7.40
2019-03-02T01:22:16.538Z,7.40
2019-03-02T01:22:52.727Z,7.40
2019-03-02T01:23:28.613Z,7.40
2019-03-02T01:24:04.492Z,7.40
2019-03-02T01:24:39.730Z,7.40
2019-03-02T01:25:15.648Z,7.40
2019-03-02T01:25:50.314Z,7.30
2019-03-02T01:26:24.840Z,7.30
2019-03-02T01:27:00.396Z,7.20
2019-03-02T01:27:35.779Z,7.30
2019-03-02T01:28:10.668Z,7.30
2019-03-02T01:28:45.421Z,7.30
2019-03-02T01:29:20.447Z,7.30
2019-03-02T01:29:55.536Z,7.40
2019-03-02T01:30:30.913Z,7.30
2019-03-02T01:31:06.092Z,7.30
2019-03-02T01:31:41.741Z,7.30
2019-03-02T01:32:17.456Z,7.30
2019-03-02T01:32:52.767Z,7.30
2019-03-02T01:33:28.605Z,7.30
2019-03-02T01:34:04.777Z,7.30
2019-03-02T01:34:42.274Z,7.40
2019-03-02T01:35:16.480Z,7.40
2019-03-02T01:35:53.936Z,7.30
2019-03-02T01:36:31.970Z,7.30
2019-03-02T01:37:07.873Z,7.30
2019-03-02T01:37:43.975Z,7.30
2019-03-02T01:38:18.628Z,7.30
2019-03-02T01:38:53.968Z,7.30
2019-03-02T01:39:30.152Z,7.30
2019-03-02T01:40:07.876Z,7.30
2019-03-02T01:40:42.377Z,7.30
2019-03-02T01:41:17.760Z,7.20
2019-03-02T01:41:53.945Z,7.20
2019-03-02T01:42:29.789Z,7.20
2019-03-02T01:43:05.032Z,7.20
2019-03-02T01:43:41.336Z,7.20
2019-03-02T01:44:16.370Z,7.20
2019-03-02T01:44:52.580Z,7.20
2019-03-02T01:45:27.804Z,7.20
2019-03-02T01:46:04.588Z,7.20
2019-03-02T01:46:40.853Z,7.20
2019-03-02T01:47:15.810Z,7.20
2019-03-02T01:47:52.128Z,7.10
2019-03-02T01:48:27.866Z,7.10
2019-03-02T01:49:02.541Z,7.20
2019-03-02T01:49:37.767Z,7.20
2019-03-02T01:50:16.767Z,7.20
2019-03-02T01:50:51.352Z,7.10
2019-03-02T01:51:25.853Z,7.10
2019-03-02T01:52:00.366Z,7.10
2019-03-02T01:52:35.284Z,7.20
2019-03-02T01:53:10.735Z,7.20
2019-03-02T01:53:45.655Z,7.20
2019-03-02T01:54:22.011Z,7.10
2019-03-02T01:54:56.694Z,7.10
2019-03-02T01:55:32.110Z,7.10
2019-03-02T01:56:07.097Z,7.10
2019-03-02T01:56:42.652Z,7.10
2019-03-02T01:57:17.947Z,7.10
2019-03-02T01:57:53.222Z,7.10
2019-03-02T01:58:28.099Z,7.10
2019-03-02T01:59:03.949Z,7.10
2019-03-02T01:59:39.934Z,7.20
2019-03-02T02:00:18.381Z,7.20
2019-03-02T02:00:52.905Z,7.20
2019-03-02T02:01:27.483Z,7.20
2019-03-02T02:02:02.062Z,7.20
2019-03-02T02:02:37.268Z,7.20
2019-03-02T02:03:12.213Z,7.20
2019-03-02T02:03:48.033Z,7.20
2019-03-02T02:04:23.763Z,7.20
2019-03-02T02:04:58.415Z,7.30
2019-03-02T02:05:33.188Z,7.30
2019-03-02T02:06:08.788Z,7.30
2019-03-02T02:06:43.685Z,7.30
2019-03-02T02:07:19.326Z,7.30
2019-03-02T02:07:55.199Z,7.30
2019-03-02T02:08:30.018Z,7.40
2019-03-02T02:09:06.766Z,7.30
2019-03-02T02:09:41.468Z,7.30
2019-03-02T02:10:16.284Z,7.30
2019-03-02T02:10:50.853Z,7.30
2019-03-02T02:11:25.439Z,7.30
2019-03-02T02:11:59.945Z,7.30
2019-03-02T02:12:34.441Z,7.20
2019-03-02T02:13:08.948Z,7.20
2019-03-02T02:13:43.975Z,7.20
2019-03-02T02:14:19.758Z,7.30
2019-03-02T02:14:54.654Z,7.20
2019-03-02T02:15:30.434Z,7.20
2019-03-02T02:16:05.627Z,7.20
2019-03-02T02:16:41.844Z,7.20
2019-03-02T02:17:17.556Z,7.20
2019-03-02T02:17:54.069Z,7.30
2019-03-02T02:18:28.730Z,7.20
2019-03-02T02:19:03.360Z,7.20
2019-03-02T02:19:38.611Z,7.20
2019-03-02T02:20:15.495Z,7.20
2019-03-02T02:20:50.643Z,7.20
2019-03-02T02:21:26.573Z,7.20
2019-03-02T02:22:02.189Z,7.20
2019-03-02T02:22:37.939Z,7.20
2019-03-02T02:23:13.312Z,7.10
2019-03-02T02:23:49.746Z,7.10
2019-03-02T02:24:25.022Z,7.10
2019-03-02T02:25:01.693Z,7.10
2019-03-02T02:25:36.566Z,7.10
2019-03-02T02:26:11.618Z,7.10
2019-03-02T02:26:47.732Z,7.10
2019-03-02T02:27:23.434Z,7.20
2019-03-02T02:27:58.697Z,7.20
2019-03-02T02:28:33.477Z,7.20
2019-03-02T02:29:09.439Z,7.20
2019-03-02T02:29:44.425Z,7.20
2019-03-02T02:30:28.890Z,7.20
2019-03-02T02:31:06.176Z,7.20
2019-03-02T02:31:44.377Z,7.20
2019-03-02T02:32:19.177Z,7.20
2019-03-02T02:32:52.417Z,7.20
2019-03-02T02:33:26.965Z,7.20
2019-03-02T02:34:01.479Z,7.10
2019-03-02T02:34:35.987Z,7.10
2019-03-02T02:35:10.633Z,7.10
2019-03-02T02:35:45.130Z,7.10
2019-03-02T02:36:20.459Z,7.10
2019-03-02T02:36:58.385Z,7.10
2019-03-02T02:37:32.292Z,7.10
2019-03-02T02:38:11.216Z,7.10
2019-03-02T02:38:43.622Z,7.10
2019-03-02T02:39:18.134Z,7.20
2019-03-02T02:39:52.643Z,7.10
2019-03-02T02:40:27.159Z,7.20
2019-03-02T02:41:01.727Z,7.20
2019-03-02T02:41:36.302Z,7.20
2019-03-02T02:42:10.800Z,7.20
2019-03-02T02:42:45.554Z,7.20
2019-03-02T02:43:20.954Z,7.20
2019-03-02T02:43:58.923Z,7.20
2019-03-02T02:44:33.206Z,7.20
2019-03-02T02:45:15.293Z,7.20
2019-03-02T02:45:48.916Z,7.10
2019-03-02T02:46:27.384Z,7.20
2019-03-02T02:47:00.381Z,7.20
2019-03-02T02:47:34.954Z,7.20
2019-03-02T02:48:09.451Z,7.20
2019-03-02T02:48:44.037Z,7.20
2019-03-02T02:49:18.617Z,7.30
2019-03-02T02:49:53.262Z,7.30
2019-03-02T02:50:31.149Z,7.20
2019-03-02T02:51:08.887Z,7.20
2019-03-02T02:51:44.488Z,7.20
2019-03-02T02:52:16.390Z,7.10
2019-03-02T02:52:51.010Z,7.10
2019-03-02T02:53:25.626Z,7.10
2019-03-02T02:54:00.142Z,7.20
2019-03-02T02:54:34.733Z,7.20
2019-03-02T02:55:09.751Z,7.20
2019-03-02T02:55:44.524Z,7.10
2019-03-02T02:56:19.947Z,7.10
2019-03-02T02:56:58.698Z,7.00
2019-03-02T02:57:33.548Z,7.00
2019-03-02T02:58:12.692Z,7.00
2019-03-02T02:58:43.974Z,7.00
2019-03-02T02:59:18.490Z,7.00
2019-03-02T02:59:53.062Z,7.00
2019-03-02T03:00:28.150Z,7.00
2019-03-02T03:01:02.733Z,7.00
2019-03-02T03:01:37.308Z,7.00
2019-03-02T03:02:12.280Z,7.00
2019-03-02T03:02:46.973Z,7.10
2019-03-02T03:03:22.633Z,7.00
2019-03-02T03:03:59.601Z,7.00
2019-03-02T03:04:36.713Z,7.00
2019-03-02T03:05:10.033Z,7.10
2019-03-02T03:05:49.209Z,7.00
2019-03-02T03:06:22.152Z,7.10
2019-03-02T03:06:56.725Z,7.00
2019-03-02T03:07:31.240Z,7.00
2019-03-02T03:08:05.842Z,7.00
2019-03-02T03:08:43.978Z,7.00
2019-03-02T03:09:27.098Z,7.00
2019-03-02T03:10:03.253Z,7.00
2019-03-02T03:10:39.507Z,7.00
2019-03-02T03:11:14.148Z,7.00
2019-03-02T03:11:48.716Z,7.00
2019-03-02T03:12:24.890Z,7.00
2019-03-02T03:13:01.938Z,7.00
2019-03-02T03:13:36.013Z,7.00
2019-03-02T03:14:15.046Z,7.00
2019-03-02T03:14:48.121Z,7.00
2019-03-02T03:15:22.741Z,7.10
2019-03-02T03:15:57.298Z,7.00
2019-03-02T03:16:31.869Z,7.00
2019-03-02T03:17:06.449Z,7.00
2019-03-02T03:17:41.046Z,7.00
2019-03-02T03:18:15.556Z,7.00
2019-03-02T03:18:52.104Z,6.90
2019-03-02T03:19:30.961Z,6.90
2019-03-02T03:20:05.584Z,6.90
2019-03-02T03:20:38.724Z,6.90
2019-03-02T03:21:13.314Z,6.80
2019-03-02T03:21:47.888Z,6.80
2019-03-02T03:22:22.395Z,6.80
2019-03-02T03:22:56.921Z,6.90
2019-03-02T03:23:31.482Z,6.90
2019-03-02T03:24:05.989Z,6.90
2019-03-02T03:24:41.849Z,6.90
2019-03-02T03:25:18.043Z,6.90
2019-03-02T03:25:56.980Z,6.90
2019-03-02T03:26:30.840Z,6.90
2019-03-02T03:27:09.101Z,6.90
2019-03-02T03:27:47.650Z,6.90
2019-03-02T03:28:19.486Z,6.90
2019-03-02T03:28:54.084Z,6.90
2019-03-02T03:29:28.671Z,6.90
2019-03-02T03:30:03.303Z,6.90
2019-03-02T03:30:39.618Z,6.90
2019-03-02T03:31:21.511Z,6.90
2019-03-02T03:31:50.232Z,6.90
2019-03-02T03:32:24.796Z,6.90
2019-03-02T03:33:00.234Z,6.90
2019-03-02T03:33:43.559Z,6.90
2019-03-02T03:34:11.264Z,6.90
2019-03-02T03:34:45.769Z,6.90
2019-03-02T03:35:20.384Z,7.00
2019-03-02T03:35:56.094Z,7.00
2019-03-02T03:36:34.057Z,7.00
2019-03-02T03:37:08.374Z,7.00
2019-03-02T03:37:50.450Z,7.00
2019-03-02T03:38:20.003Z,7.00
2019-03-02T03:38:54.575Z,7.00
2019-03-02T03:39:29.161Z,7.00
2019-03-02T03:40:05.489Z,7.00
2019-03-02T03:40:40.046Z,7.00
2019-03-02T03:41:14.549Z,7.00
2019-03-02T03:41:49.127Z,7.00
2019-03-02T03:42:24.760Z,7.00
2019-03-02T03:43:03.130Z,7.00
2019-03-02T03:43:41.425Z,7.00
2019-03-02T03:44:12.065Z,7.00
2019-03-02T03:44:46.627Z,7.00
2019-03-02T03:45:21.192Z,7.00
2019-03-02T03:45:55.705Z,7.00
2019-03-02T03:46:30.320Z,7.10
2019-03-02T03:47:04.874Z,7.00
2019-03-02T03:47:40.388Z,7.00
2019-03-02T03:48:17.897Z,7.00
2019-03-02T03:48:56.235Z,7.10
2019-03-02T03:49:30.045Z,7.10
2019-03-02T03:50:09.168Z,7.10
2019-03-02T03:50:41.946Z,7.10
2019-03-02T03:51:16.444Z,7.10
2019-03-02T03:51:50.954Z,7.10
2019-03-02T03:52:25.515Z,7.10
2019-03-02T03:53:00.027Z,7.10
2019-03-02T03:53:34.545Z,7.00
2019-03-02T03:54:09.137Z,7.10
2019-03-02T03:54:45.426Z,7.10
2019-03-02T03:55:25.044Z,7.00
2019-03-02T03:56:03.357Z,7.00
2019-03-02T03:56:32.297Z,7.00
2019-03-02T03:57:06.861Z,7.00
2019-03-02T03:57:41.371Z,7.00
2019-03-02T03:58:15.948Z,6.90
2019-03-02T03:58:50.587Z,6.90
2019-03-02T03:59:25.106Z,6.90
2019-03-02T04:00:00.536Z,6.90
2019-03-02T04:00:38.584Z,6.90
2019-03-02T04:01:17.039Z,6.90
2019-03-02T04:01:52.112Z,6.90
2019-03-02T04:02:26.102Z,6.90
2019-03-02T04:03:00.649Z,6.90
2019-03-02T04:03:35.239Z,6.90
2019-03-02T04:04:09.837Z,6.90
2019-03-02T04:04:44.421Z,6.90
2019-03-02T04:05:18.927Z,6.90
2019-03-02T04:05:53.453Z,6.90
2019-03-02T04:06:29.133Z,6.90
2019-03-02T04:07:06.225Z,6.80
2019-03-02T04:07:48.291Z,6.80
2019-03-02T04:08:16.176Z,6.80
2019-03-02T04:08:50.689Z,6.90
2019-03-02T04:09:25.446Z,6.90
2019-03-02T04:09:59.950Z,6.90
2019-03-02T04:10:34.539Z,6.80
2019-03-02T04:11:09.047Z,6.90
2019-03-02T04:11:43.880Z,6.90
2019-03-02T04:12:19.867Z,7.00
2019-03-02T04:13:03.707Z,6.90
2019-03-02T04:13:30.872Z,6.90
2019-03-02T04:14:05.438Z,7.00
2019-03-02T04:14:39.951Z,7.00
2019-03-02T04:15:14.695Z,6.90
2019-03-02T04:15:49.219Z,6.90
2019-03-02T04:16:23.788Z,6.90
2019-03-02T04:17:00.585Z,6.90
2019-03-02T04:17:38.992Z,6.80
2019-03-02T04:18:50.181Z,6.80
2019-03-02T04:19:29.451Z,6.80
2019-03-02T04:20:12.592Z,6.80
2019-03-02T04:20:45.607Z,6.80
2019-03-02T04:21:23.577Z,6.80
2019-03-02T04:22:01.899Z,6.90
2019-03-02T04:22:33.926Z,6.90
2019-03-02T04:23:10.053Z,6.90
2019-03-02T04:23:44.574Z,6.90
2019-03-02T04:24:19.344Z,6.90
2019-03-02T04:24:53.941Z,6.90
2019-03-02T04:25:28.452Z,6.90
2019-03-02T04:26:03.040Z,6.90
2019-03-02T04:26:38.613Z,6.90
2019-03-02T04:27:15.501Z,7.00
2019-03-02T04:27:54.224Z,7.00
2019-03-02T04:28:27.700Z,7.00
2019-03-02T04:29:09.124Z,6.90
2019-03-02T04:29:38.229Z,6.90
2019-03-02T04:30:12.929Z,7.00
2019-03-02T04:30:50.226Z,7.00
2019-03-02T04:31:24.722Z,7.00
2019-03-02T04:31:59.217Z,7.00
2019-03-02T04:32:33.716Z,6.90
2019-03-02T04:33:08.522Z,7.00
2019-03-02T04:33:44.543Z,7.00
2019-03-02T04:34:21.174Z,7.00
2019-03-02T04:34:57.799Z,7.00
2019-03-02T04:35:33.829Z,7.00
2019-03-02T04:36:10.062Z,6.90
2019-03-02T04:36:47.288Z,7.00
2019-03-02T04:37:23.713Z,7.00
2019-03-02T04:38:00.395Z,6.90
2019-03-02T04:38:33.643Z,6.90
2019-03-02T04:39:09.599Z,7.00
2019-03-02T04:39:46.345Z,7.00
2019-03-02T04:40:23.294Z,7.00
2019-03-02T04:41:00.685Z,7.00
2019-03-02T04:41:35.686Z,7.00
2019-03-02T04:42:11.790Z,7.00
2019-03-02T04:42:46.535Z,6.90
2019-03-02T04:43:22.359Z,6.90
2019-03-02T04:43:56.976Z,6.90
2019-03-02T04:44:31.576Z,6.90
2019-03-02T04:45:11.041Z,6.90
2019-03-02T04:45:45.552Z,6.90
2019-03-02T04:46:20.076Z,6.90
2019-03-02T04:46:54.568Z,6.90
2019-03-02T04:47:29.088Z,6.90
2019-03-02T04:48:04.604Z,6.80
2019-03-02T04:48:39.441Z,6.80
2019-03-02T04:49:15.454Z,6.80
2019-03-02T04:49:51.479Z,6.80
2019-03-02T04:50:27.066Z,6.90
2019-03-02T04:51:02.839Z,6.80
2019-03-02T04:51:38.780Z,6.90
2019-03-02T04:52:14.577Z,6.90
2019-03-02T04:52:49.952Z,6.90
2019-03-02T04:53:25.955Z,6.90
2019-03-02T04:54:01.838Z,6.90
2019-03-02T04:54:37.648Z,6.90
2019-03-02T04:55:13.811Z,6.90
2019-03-02T04:55:49.423Z,6.90
2019-03-02T04:56:25.024Z,6.90
2019-03-02T04:56:59.858Z,6.90
2019-03-02T04:57:36.175Z,6.90
2019-03-02T04:58:11.929Z,6.90
2019-03-02T04:58:47.083Z,6.90
2019-03-02T04:59:23.739Z,6.90
2019-03-02T04:59:58.227Z,6.90
2019-03-02T05:00:33.074Z,6.90
2019-03-02T05:01:07.893Z,6.90
2019-03-02T05:01:44.722Z,6.90
2019-03-02T05:02:19.640Z,6.90
2019-03-02T05:02:56.054Z,6.80
2019-03-02T05:03:30.654Z,6.80
2019-03-02T05:04:05.161Z,6.80
2019-03-02T05:04:39.683Z,6.80
2019-03-02T05:05:14.399Z,6.80
2019-03-02T05:05:48.968Z,6.80
2019-03-02T05:06:23.486Z,6.80
2019-03-02T05:06:57.996Z,6.80
2019-03-02T05:07:32.498Z,6.80
2019-03-02T05:08:06.989Z,6.90
2019-03-02T05:08:42.413Z,6.90
2019-03-02T05:09:17.201Z,6.90
2019-03-02T05:09:53.009Z,6.90
2019-03-02T05:10:28.732Z,6.90
2019-03-02T05:11:04.480Z,6.90
2019-03-02T05:11:39.647Z,6.90
2019-03-02T05:12:15.542Z,6.80
2019-03-02T05:12:53.018Z,6.80
2019-03-02T05:13:28.295Z,6.90
2019-03-02T05:14:04.347Z,6.90
2019-03-02T05:14:40.213Z,6.90
2019-03-02T05:15:16.126Z,6.90
2019-03-02T05:15:52.341Z,6.90
2019-03-02T05:16:28.822Z,6.90
2019-03-02T05:17:03.406Z,6.80
2019-03-02T05:17:39.693Z,6.90
2019-03-02T05:18:18.126Z,6.90
2019-03-02T05:18:53.413Z,6.80
2019-03-02T05:19:29.097Z,6.80
2019-03-02T05:20:06.281Z,6.80
2019-03-02T05:20:42.130Z,6.90
2019-03-02T05:21:16.862Z,6.80
2019-03-02T05:21:51.363Z,6.90
2019-03-02T05:22:25.865Z,6.80
2019-03-02T05:23:00.390Z,6.80
2019-03-02T05:23:34.974Z,6.80
2019-03-02T05:24:10.216Z,6.80
2019-03-02T05:24:44.788Z,6.80
2019-03-02T05:25:20.194Z,6.80
2019-03-02T05:25:55.452Z,6.80
2019-03-02T05:26:29.961Z,6.80
2019-03-02T05:27:04.481Z,6.90
2019-03-02T05:27:39.038Z,6.90
2019-03-02T05:28:13.541Z,6.90
2019-03-02T05:28:48.054Z,6.90
2019-03-02T05:29:22.562Z,6.80
2019-03-02T05:29:57.157Z,6.80
2019-03-02T05:30:31.744Z,6.80
2019-03-02T05:31:07.051Z,6.80
2019-03-02T05:31:42.059Z,6.70
2019-03-02T05:32:17.150Z,6.70
2019-03-02T05:32:52.680Z,6.70
2019-03-02T05:33:28.894Z,6.70
2019-03-02T05:34:04.493Z,6.70
2019-03-02T05:34:39.979Z,6.70
2019-03-02T05:35:15.782Z,6.70
2019-03-02T05:35:51.773Z,6.70
2019-03-02T05:36:26.931Z,6.70
2019-03-02T05:37:03.806Z,6.70
2019-03-02T05:37:39.093Z,6.70
2019-03-02T05:38:15.272Z,6.70
2019-03-02T05:38:50.588Z,6.70
2019-03-02T05:39:25.089Z,6.70
2019-03-02T05:39:59.617Z,6.70
2019-03-02T05:40:34.121Z,6.70
2019-03-02T05:41:08.616Z,6.70
2019-03-02T05:41:43.134Z,6.70
2019-03-02T05:42:17.666Z,6.70
2019-03-02T05:42:52.648Z,6.70
2019-03-02T05:43:28.271Z,6.80
2019-03-02T05:44:02.889Z,6.80
2019-03-02T05:44:39.188Z,6.80
2019-03-02T05:45:14.670Z,6.90
2019-03-02T05:45:49.185Z,6.90
2019-03-02T05:46:25.536Z,6.90
2019-03-02T05:47:01.433Z,6.90
2019-03-02T05:47:36.211Z,6.90
2019-03-02T05:48:10.784Z,6.80
2019-03-02T05:48:45.290Z,6.80
2019-03-02T05:49:19.797Z,6.80
2019-03-02T05:49:54.925Z,6.80
2019-03-02T05:50:31.542Z,6.80
2019-03-02T05:51:06.735Z,6.80
2019-03-02T05:51:42.644Z,6.80
2019-03-02T05:52:18.687Z,6.70
2019-03-02T05:52:54.219Z,6.70
2019-03-02T05:53:30.251Z,6.70
2019-03-02T05:54:06.349Z,6.70
2019-03-02T05:54:41.525Z,6.80
2019-03-02T05:55:18.154Z,6.80
2019-03-02T05:55:53.728Z,6.80
2019-03-02T05:56:29.996Z,6.80
2019-03-02T05:57:05.479Z,6.80
2019-03-02T05:57:40.520Z,6.80
2019-03-02T05:58:15.907Z,6.80
2019-03-02T05:58:51.929Z,6.90
2019-03-02T05:59:27.646Z,6.90
2019-03-02T06:00:03.160Z,6.80
2019-03-02T06:00:38.887Z,6.80
2019-03-02T06:01:13.497Z,6.70
2019-03-02T06:01:48.040Z,6.70
2019-03-02T06:02:22.551Z,6.70
2019-03-02T06:02:57.065Z,6.60
2019-03-02T06:03:31.600Z,6.60
2019-03-02T06:04:06.128Z,6.50
2019-03-02T06:04:40.672Z,6.60
2019-03-02T06:05:15.173Z,6.60
2019-03-02T06:05:49.681Z,6.50
2019-03-02T06:06:24.190Z,6.50
2019-03-02T06:06:58.745Z,6.40
2019-03-02T06:07:33.238Z,6.40
2019-03-02T06:08:07.767Z,6.40
2019-03-02T06:08:42.289Z,6.40
2019-03-02T06:09:16.789Z,6.40
2019-03-02T06:09:51.363Z,6.40
2019-03-02T06:10:26.378Z,6.40
2019-03-02T06:11:01.906Z,6.40
2019-03-02T06:11:39.385Z,6.40
2019-03-02T06:12:15.565Z,6.40
2019-03-02T06:12:51.471Z,6.40
2019-03-02T06:13:28.248Z,6.40
2019-03-02T06:14:01.956Z,6.40
2019-03-02T06:14:36.462Z,6.40
2019-03-02T06:15:15.036Z,6.40
2019-03-02T06:15:49.536Z,6.50
2019-03-02T06:16:24.046Z,6.40
2019-03-02T06:16:58.597Z,6.40
2019-03-02T06:17:33.845Z,6.40
2019-03-02T06:18:08.807Z,6.40
2019-03-02T06:18:45.378Z,6.40
2019-03-02T06:19:23.356Z,6.40
2019-03-02T06:19:59.151Z,6.40
2019-03-02T06:20:32.647Z,6.40
2019-03-02T06:21:10.811Z,6.40
2019-03-02T06:21:46.318Z,6.40
2019-03-02T06:22:21.834Z,6.40
2019-03-02T06:22:56.717Z,6.40
2019-03-02T06:23:31.285Z,6.40
2019-03-02T06:24:06.563Z,6.30
2019-03-02T06:24:41.985Z,6.30
2019-03-02T06:25:20.675Z,6.30
2019-03-02T06:25:55.175Z,6.30
2019-03-02T06:26:31.721Z,6.30
2019-03-02T06:27:07.766Z,6.40
2019-03-02T06:27:42.917Z,6.40
2019-03-02T06:28:19.600Z,6.40
2019-03-02T06:28:54.603Z,6.40
2019-03-02T06:29:29.445Z,6.40
2019-03-02T06:30:17.204Z,6.50
2019-03-02T06:30:51.725Z,6.40
2019-03-02T06:31:26.244Z,6.50
2019-03-02T06:32:00.803Z,6.50
2019-03-02T06:32:35.315Z,6.50
2019-03-02T06:33:09.824Z,6.50
2019-03-02T06:33:45.325Z,6.50
2019-03-02T06:34:20.724Z,6.50
2019-03-02T06:34:55.867Z,6.50
2019-03-02T06:35:32.818Z,6.50
2019-03-02T06:36:08.733Z,6.50
2019-03-02T06:36:44.750Z,6.60
2019-03-02T06:37:19.968Z,6.50
2019-03-02T06:37:56.464Z,6.50
2019-03-02T06:38:32.169Z,6.60
2019-03-02T06:39:09.016Z,6.60
2019-03-02T06:39:44.454Z,6.60
2019-03-02T06:40:20.103Z,6.50
2019-03-02T06:40:58.054Z,6.60
2019-03-02T06:41:33.158Z,6.60
2019-03-02T06:42:09.842Z,6.60
2019-03-02T06:42:45.663Z,6.60
2019-03-02T06:43:21.858Z,6.60
2019-03-02T06:43:58.470Z,6.60
2019-03-02T06:44:34.187Z,6.60
2019-03-02T06:45:11.483Z,6.70
2019-03-02T06:45:45.985Z,6.60
2019-03-02T06:46:23.365Z,6.70
2019-03-02T06:46:58.339Z,6.70
2019-03-02T06:47:33.358Z,6.70
2019-03-02T06:48:09.601Z,6.70
2019-03-02T06:48:45.160Z,6.70
2019-03-02T06:49:21.173Z,6.70
2019-03-02T06:49:59.135Z,6.60
2019-03-02T06:50:35.681Z,6.60
2019-03-02T06:51:11.248Z,6.60
2019-03-02T06:51:47.310Z,6.70
2019-03-02T06:52:25.130Z,6.70
2019-03-02T06:52:57.983Z,6.70
2019-03-02T06:53:34.027Z,6.70
2019-03-02T06:54:12.991Z,6.80
2019-03-02T06:54:48.305Z,6.80
2019-03-02T06:55:24.449Z,6.80
2019-03-02T06:56:00.823Z,6.80
2019-03-02T06:56:36.255Z,6.80
2019-03-02T06:57:10.698Z,6.80
2019-03-02T06:57:49.878Z,6.80
2019-03-02T06:58:27.207Z,6.80
2019-03-02T06:59:00.711Z,6.80
2019-03-02T06:59:35.804Z,6.80
2019-03-02T07:00:14.936Z,6.80
2019-03-02T07:00:51.871Z,6.70
2019-03-02T07:01:27.199Z,6.70
2019-03-02T07:02:01.698Z,6.70
2019-03-02T07:02:36.197Z,6.70
2019-03-02T07:03:11.178Z,6.70
2019-03-02T07:03:46.715Z,6.70
2019-03-02T07:04:21.977Z,6.70
2019-03-02T07:04:58.086Z,6.70
2019-03-02T07:05:34.021Z,6.70
2019-03-02T07:06:11.726Z,6.80
2019-03-02T07:06:46.948Z,6.80
2019-03-02T07:07:21.746Z,6.80
2019-03-02T07:07:58.177Z,6.80
2019-03-02T07:08:34.108Z,6.80
2019-03-02T07:09:09.695Z,6.80
2019-03-02T07:09:45.469Z,6.80
2019-03-02T07:10:23.306Z,6.80
2019-03-02T07:10:58.149Z,6.70
2019-03-02T07:11:34.678Z,6.70
2019-03-02T07:12:09.591Z,6.70
2019-03-02T07:12:45.772Z,6.70
2019-03-02T07:13:22.343Z,6.70
2019-03-02T07:13:57.183Z,6.70
2019-03-02T07:14:32.289Z,6.70
2019-03-02T07:15:09.613Z,6.70
2019-03-02T07:15:44.991Z,6.70
2019-03-02T07:16:20.132Z,6.70
2019-03-02T07:16:56.023Z,6.70
2019-03-02T07:17:50.190Z,6.70
2019-03-02T07:18:29.084Z,6.70
2019-03-02T07:19:23.322Z,6.70
2019-03-02T07:19:59.527Z,6.70
2019-03-02T07:20:41.228Z,6.70
2019-03-02T07:21:15.809Z,6.70
2019-03-02T07:21:50.316Z,6.70
2019-03-02T07:22:24.826Z,6.60
2019-03-02T07:22:59.894Z,6.60
2019-03-02T07:23:34.395Z,6.60
2019-03-02T07:24:08.901Z,6.70
2019-03-02T07:24:43.419Z,6.70
2019-03-02T07:25:18.001Z,6.70
2019-03-02T07:25:52.509Z,6.70
2019-03-02T07:26:27.022Z,6.70
2019-03-02T07:27:01.532Z,6.70
2019-03-02T07:27:36.118Z,6.70
2019-03-02T07:28:10.685Z,6.70
2019-03-02T07:28:45.264Z,6.80
2019-03-02T07:29:19.774Z,6.80
2019-03-02T07:29:55.098Z,6.80
2019-03-02T07:30:29.648Z,6.80
2019-03-02T07:31:04.153Z,6.80
2019-03-02T07:31:38.668Z,6.80
2019-03-02T07:32:13.179Z,6.80
2019-03-02T07:32:47.766Z,6.90
2019-03-02T07:33:22.328Z,6.80
2019-03-02T07:33:56.899Z,6.80
2019-03-02T07:34:31.412Z,6.90
2019-03-02T07:35:08.811Z,6.90
2019-03-02T07:35:43.308Z,6.90
2019-03-02T07:36:17.824Z,6.90
2019-03-02T07:36:52.324Z,6.80
2019-03-02T07:37:26.895Z,6.90
2019-03-02T07:38:01.483Z,6.90
2019-03-02T07:38:36.051Z,6.90
2019-03-02T07:39:10.571Z,6.90
2019-03-02T07:39:45.125Z,6.90
2019-03-02T07:40:19.630Z,6.90
2019-03-02T07:40:54.133Z,6.90
2019-03-02T07:41:28.633Z,6.90
2019-03-02T07:42:03.162Z,6.90
2019-03-02T07:42:37.753Z,6.90
2019-03-02T07:43:12.255Z,6.90
2019-03-02T07:43:47.644Z,6.90
2019-03-02T07:44:22.492Z,6.90
2019-03-02T07:44:58.473Z,6.90
2019-03-02T07:45:34.761Z,6.90
2019-03-02T07:46:11.795Z,6.80
2019-03-02T07:46:47.888Z,6.90
2019-03-02T07:47:24.097Z,6.90
2019-03-02T07:48:00.316Z,6.90
2019-03-02T07:48:36.703Z,6.90
2019-03-02T07:49:13.097Z,6.90
2019-03-02T07:49:49.813Z,6.90
2019-03-02T07:50:25.940Z,6.90
2019-03-02T07:51:01.090Z,7.00
2019-03-02T07:51:37.928Z,6.90
2019-03-02T07:52:13.726Z,7.00
2019-03-02T07:52:49.733Z,6.90
2019-03-02T07:53:25.071Z,6.90